Time;durP1;ratioP1;P1;durP2;ratioP2;P2;SDS_P1;SDS_P2;PMS_P1;PMS_P2;Temp;Humidity;BMP_temperature;BMP_pressure;BME280_temperature;BME280_humidity;BME280_pressure;Samples;Min_cycle;Max_cycle;Signal;HPM_P1;HPM_P2
2022/08/24 00:01:26;;;;;;;10.00;4.20;;;17.90;99.90;;;;;;4969438;28;20215;-73
2022/08/24 00:03:54;;;;;;;6.10;5.50;;;17.90;99.90;;;;;;4969973;28;20650;-72
2022/08/24 00:06:21;;;;;;;4.70;4.33;;;17.80;99.90;;;;;;4969688;28;20427;-72
2022/08/24 00:08:49;;;;;;;4.60;4.20;;;17.90;99.90;;;;;;4969271;28;20419;-73
2022/08/24 00:11:16;;;;;;;6.10;4.40;;;17.90;99.90;;;;;;4968909;28;20530;-71
2022/08/24 00:13:42;;;;;;;4.93;4.53;;;17.90;99.90;;;;;;4970202;28;20929;-72
2022/08/24 00:16:08;;;;;;;4.73;4.30;;;17.80;99.90;;;;;;4970423;28;20506;-71
2022/08/24 00:18:34;;;;;;;8.33;4.77;;;17.80;99.90;;;;;;4972946;28;20998;-73
2022/08/24 00:21:00;;;;;;;4.67;4.13;;;17.80;99.90;;;;;;4972816;28;20439;-72
2022/08/24 00:23:27;;;;;;;7.23;5.20;;;17.70;99.90;;;;;;4957436;28;20419;-72
2022/08/24 00:25:52;;;;;;;4.70;4.30;;;17.70;99.90;;;;;;4973240;28;20421;-73
2022/08/24 00:28:18;;;;;;;4.93;4.40;;;17.70;99.90;;;;;;4972928;28;20426;-73
2022/08/24 00:30:43;;;;;;;6.90;4.83;;;17.70;99.90;;;;;;4972523;28;20266;-73
2022/08/24 00:33:09;;;;;;;6.37;4.70;;;17.60;99.90;;;;;;4972580;28;20188;-72
2022/08/24 00:35:35;;;;;;;5.67;5.10;;;17.50;99.90;;;;;;4973232;28;20291;-72
2022/08/24 00:38:00;;;;;;;6.57;3.83;;;17.50;99.90;;;;;;4972891;28;20199;-73
2022/08/24 00:40:32;;;;;;;7.20;4.77;;;17.50;99.90;;;;;;4972642;28;20287;-74
2022/08/24 00:43:02;;;;;;;6.27;4.80;;;17.40;99.90;;;;;;4973064;28;20693;-72
2022/08/24 00:45:29;;;;;;;6.27;4.20;;;17.30;99.90;;;;;;4972680;28;20419;-73
2022/08/24 00:48:03;;;;;;;5.10;4.40;;;17.30;99.90;;;;;;4972673;28;20434;-70
2022/08/24 00:50:38;;;;;;;4.57;4.17;;;17.20;99.90;;;;;;4972689;28;20434;-74
2022/08/24 00:53:10;;;;;;;4.13;3.80;;;17.20;99.90;;;;;;4972775;28;20443;-74
2022/08/24 00:55:42;;;;;;;5.03;3.90;;;17.20;99.90;;;;;;4972295;28;20424;-71
2022/08/24 00:58:19;;;;;;;6.83;4.80;;;17.20;99.90;;;;;;4972910;28;20458;-72
2022/08/24 02:31:22;;;;;;;5.87;5.30;;;15.90;99.90;;;;;;5694670;23;21729;-69
2022/08/24 02:33:47;;;;;;;6.10;4.90;;;15.90;99.90;;;;;;4952532;28;20445;-72
2022/08/24 02:36:14;;;;;;;7.50;5.50;;;15.90;99.90;;;;;;4953161;28;20173;-71
2022/08/24 02:38:40;;;;;;;7.43;6.33;;;15.90;99.90;;;;;;4952153;28;20216;-71
2022/08/24 02:41:06;;;;;;;5.87;5.37;;;15.90;99.90;;;;;;4953117;28;20444;-71
2022/08/24 02:43:32;;;;;;;6.30;5.80;;;15.90;99.90;;;;;;4952325;28;20409;-72
2022/08/24 02:45:57;;;;;;;6.27;5.67;;;15.80;99.90;;;;;;4945721;28;20217;-72
2022/08/24 02:48:23;;;;;;;6.40;5.90;;;15.80;99.90;;;;;;4950110;29;20784;-73
2022/08/24 02:50:50;;;;;;;6.03;5.43;;;15.80;99.90;;;;;;4952172;29;20211;-72
2022/08/24 02:53:18;;;;;;;10.23;5.57;;;15.80;99.90;;;;;;4952736;29;20216;-72
2022/08/24 02:55:44;;;;;;;7.50;6.07;;;15.80;99.90;;;;;;4952811;29;20408;-70
2022/08/24 02:58:11;;;;;;;6.67;6.00;;;15.80;99.90;;;;;;4950776;29;20483;-71
2022/08/24 03:00:42;;;;;;;5.77;5.27;;;15.80;99.90;;;;;;4952018;29;20405;-71
2022/08/24 03:03:08;;;;;;;6.47;5.87;;;15.80;99.90;;;;;;4951929;29;20507;-71
2022/08/24 03:05:35;;;;;;;7.43;5.57;;;15.80;99.90;;;;;;4952465;29;20431;-71
2022/08/24 03:08:01;;;;;;;5.90;5.40;;;15.80;99.90;;;;;;4952544;29;20424;-71
2022/08/24 03:10:26;;;;;;;6.47;5.63;;;15.80;99.90;;;;;;4952140;28;20470;-71
2022/08/24 03:12:52;;;;;;;7.97;6.53;;;15.70;99.90;;;;;;4951847;29;20440;-71
2022/08/24 03:15:21;;;;;;;6.27;5.67;;;15.70;99.90;;;;;;4952476;29;20192;-73
2022/08/24 03:17:47;;;;;;;6.23;5.67;;;15.70;99.90;;;;;;4952249;29;20180;-72
2022/08/24 03:20:16;;;;;;;7.70;5.33;;;15.70;99.90;;;;;;4952485;29;20427;-71
2022/08/24 03:22:41;;;;;;;7.40;5.77;;;15.70;99.90;;;;;;4951526;29;20424;-72
2022/08/24 03:25:07;;;;;;;6.27;5.53;;;15.70;99.90;;;;;;4952310;29;20507;-72
2022/08/24 03:27:33;;;;;;;6.70;6.17;;;15.70;99.90;;;;;;4952358;29;20733;-72
2022/08/24 03:30:00;;;;;;;6.70;6.10;;;15.60;99.90;;;;;;4952408;29;20980;-72
2022/08/24 03:32:26;;;;;;;6.70;6.23;;;15.60;99.90;;;;;;4951360;29;20491;-71
2022/08/24 03:34:53;;;;;;;8.10;5.90;;;15.60;99.90;;;;;;4952527;29;20917;-72
2022/08/24 03:37:19;;;;;;;6.43;5.90;;;15.60;99.90;;;;;;4952400;29;20420;-71
2022/08/24 03:39:46;;;;;;;6.97;6.13;;;15.50;99.90;;;;;;4952216;29;20849;-70
2022/08/24 03:42:12;;;;;;;7.20;6.57;;;15.50;99.90;;;;;;4951309;29;21094;-72
2022/08/24 03:44:37;;;;;;;10.00;6.47;;;15.40;99.90;;;;;;4953484;29;20424;-72
2022/08/24 03:47:03;;;;;;;7.17;6.57;;;15.40;99.90;;;;;;4953744;29;20423;-72
2022/08/24 03:49:29;;;;;;;7.47;6.73;;;15.40;99.90;;;;;;4952098;29;20184;-72
2022/08/24 03:51:54;;;;;;;7.13;6.50;;;15.40;99.90;;;;;;4953671;28;20279;-73
2022/08/24 03:54:20;;;;;;;7.10;6.47;;;15.30;99.90;;;;;;4956275;29;20647;-72
2022/08/24 03:56:45;;;;;;;8.83;7.10;;;15.30;99.90;;;;;;4956657;29;20199;-69
2022/08/24 03:59:11;;;;;;;10.57;5.80;;;15.30;99.90;;;;;;4956507;29;20211;-71
2022/08/24 04:01:37;;;;;;;7.13;6.53;;;15.30;99.90;;;;;;4955167;29;20259;-72
2022/08/24 04:04:04;;;;;;;7.30;6.53;;;15.30;99.90;;;;;;4956420;29;20169;-72
2022/08/24 04:06:29;;;;;;;8.00;7.13;;;15.20;99.90;;;;;;4956061;29;20424;-72
2022/08/24 04:08:55;;;;;;;7.57;6.87;;;15.20;99.90;;;;;;4956245;29;20436;-72
2022/08/24 04:11:25;;;;;;;7.63;6.63;;;15.10;99.90;;;;;;4954998;29;20624;-71
2022/08/24 04:13:55;;;;;;;6.50;5.90;;;15.10;99.90;;;;;;4955704;29;20263;-71
2022/08/24 04:16:22;;;;;;;7.77;7.10;;;15.10;99.90;;;;;;4955427;29;20412;-71
2022/08/24 04:18:48;;;;;;;8.83;7.93;;;15.10;99.90;;;;;;4955079;29;20456;-71
2022/08/24 04:21:29;;;;;;;7.23;6.53;;;15.10;99.90;;;;;;4954233;29;20523;-72
2022/08/24 04:23:55;;;;;;;7.27;6.57;;;15.10;99.90;;;;;;4955365;29;20415;-72
2022/08/24 04:26:23;;;;;;;7.80;7.10;;;15.10;99.90;;;;;;4955441;29;20422;-72
2022/08/24 04:28:50;;;;;;;7.57;6.97;;;15.10;99.90;;;;;;4955275;29;20420;-72
2022/08/24 04:31:17;;;;;;;7.83;7.13;;;15.20;99.90;;;;;;4954374;29;20462;-72
2022/08/24 04:33:45;;;;;;;6.80;6.30;;;15.20;99.90;;;;;;4954800;29;20840;-72
2022/08/24 04:36:11;;;;;;;7.43;6.77;;;15.20;99.90;;;;;;4955362;29;20416;-72
2022/08/24 04:38:37;;;;;;;7.53;5.73;;;15.20;99.90;;;;;;4954799;29;20524;-72
2022/08/24 04:41:05;;;;;;;8.33;6.10;;;15.20;99.90;;;;;;4954496;29;20204;-71
2022/08/24 04:43:31;;;;;;;7.60;6.93;;;15.30;99.90;;;;;;4954786;29;20408;-72
2022/08/24 04:45:57;;;;;;;8.63;7.07;;;15.30;99.90;;;;;;4955086;29;20479;-72
2022/08/24 04:48:22;;;;;;;6.43;5.83;;;15.30;99.90;;;;;;4954441;29;20181;-72
2022/08/24 04:50:48;;;;;;;7.20;6.50;;;15.30;99.90;;;;;;4954231;29;20176;-72
2022/08/24 04:53:14;;;;;;;7.13;6.53;;;15.20;99.90;;;;;;4954915;29;20172;-72
2022/08/24 04:55:47;;;;;;;6.73;6.23;;;15.20;99.90;;;;;;4955193;29;20177;-72
2022/08/24 04:58:15;;;;;;;8.70;7.27;;;15.20;99.90;;;;;;4955449;29;20762;-72
2022/08/24 05:00:41;;;;;;;7.87;7.07;;;15.20;99.90;;;;;;4954609;29;20427;-73
2022/08/24 05:03:07;;;;;;;9.80;8.80;;;15.20;99.90;;;;;;4954651;28;20450;-72
2022/08/24 05:05:33;;;;;;;9.80;8.30;;;15.20;99.90;;;;;;4955342;29;20917;-72
2022/08/24 05:07:58;;;;;;;10.33;7.70;;;15.40;99.90;;;;;;4955161;29;20185;-72
2022/08/24 05:10:24;;;;;;;13.30;8.23;;;15.50;99.90;;;;;;4954577;29;20648;-69
2022/08/24 05:12:49;;;;;;;7.97;7.17;;;15.50;99.90;;;;;;4954557;29;20196;-74
2022/08/24 05:15:15;;;;;;;7.20;6.50;;;15.60;99.90;;;;;;4953851;29;20183;-71
2022/08/24 05:17:41;;;;;;;13.00;6.10;;;15.70;99.90;;;;;;4949947;29;20193;-73
2022/08/24 05:20:09;;;;;;;6.70;5.83;;;15.80;99.90;;;;;;4948198;29;20195;-73
2022/08/24 05:22:34;;;;;;;14.10;6.60;;;16.10;99.90;;;;;;4951772;29;20475;-72
2022/08/24 05:25:00;;;;;;;8.47;6.30;;;16.50;99.90;;;;;;4952031;29;20933;-72
2022/08/24 05:27:26;;;;;;;7.30;6.60;;;16.90;99.90;;;;;;4952063;29;20184;-72
2022/08/24 05:29:52;;;;;;;8.33;6.00;;;17.40;99.90;;;;;;4952213;29;20550;-71
2022/08/24 05:32:18;;;;;;;5.47;5.07;;;18.00;99.90;;;;;;4951454;29;20216;-73
2022/08/24 05:34:44;;;;;;;5.90;5.40;;;18.50;99.90;;;;;;4952070;29;20456;-70
2022/08/24 05:37:09;;;;;;;7.47;6.03;;;19.10;99.90;;;;;;4952546;29;20806;-73
2022/08/24 05:39:35;;;;;;;9.60;5.90;;;19.50;99.90;;;;;;4953828;29;20216;-73
2022/08/24 05:42:01;;;;;;;7.37;6.67;;;19.80;99.90;;;;;;4953372;29;20201;-74
2022/08/24 05:44:28;;;;;;;13.37;7.83;;;20.20;99.90;;;;;;4953823;29;20658;-73
2022/08/24 05:46:56;;;;;;;7.73;5.87;;;20.60;99.90;;;;;;4953358;29;20173;-73
2022/08/24 05:49:25;;;;;;;5.87;5.37;;;20.90;99.90;;;;;;4953753;29;20444;-73
2022/08/24 05:51:51;;;;;;;6.03;5.47;;;21.00;99.90;;;;;;4953896;29;20448;-73
2022/08/24 05:54:18;;;;;;;6.57;5.33;;;21.20;99.90;;;;;;4954995;29;20470;-73
2022/08/24 05:56:44;;;;;;;11.03;5.37;;;21.40;99.90;;;;;;4953643;29;20432;-72
2022/08/24 05:59:10;;;;;;;5.67;5.03;;;21.70;99.90;;;;;;4952978;29;20497;-72
2022/08/24 06:01:36;;;;;;;5.30;4.80;;;22.00;99.90;;;;;;4953042;29;20444;-72
2022/08/24 06:04:03;;;;;;;5.80;4.47;;;22.40;99.90;;;;;;4953649;29;20183;-72
2022/08/24 06:06:28;;;;;;;6.47;5.57;;;22.60;99.90;;;;;;4952206;29;20420;-73
2022/08/24 06:08:56;;;;;;;7.73;5.57;;;22.60;99.90;;;;;;4953012;29;20948;-72
2022/08/24 06:11:25;;;;;;;6.93;5.60;;;22.70;99.90;;;;;;4952610;29;20565;-72
2022/08/24 06:13:56;;;;;;;5.77;5.37;;;22.60;99.90;;;;;;4952530;28;21008;-74
2022/08/24 06:16:22;;;;;;;9.27;5.53;;;22.60;99.90;;;;;;4953341;29;20420;-73
2022/08/24 06:18:50;;;;;;;10.60;6.30;;;22.60;99.90;;;;;;4952931;29;20464;-73
2022/08/24 06:21:18;;;;;;;8.27;5.67;;;22.70;99.90;;;;;;4952519;29;20889;-72
2022/08/24 06:23:44;;;;;;;6.23;5.63;;;22.80;99.90;;;;;;4952831;29;20432;-69
2022/08/24 06:28:56;;;;;;;12.90;5.57;;;23.30;99.90;;;;;;4952667;29;20472;-73
2022/08/24 06:31:23;;;;;;;8.57;5.60;;;23.60;99.90;;;;;;4952376;29;20885;-72
2022/08/24 06:33:49;;;;;;;6.67;5.70;;;23.90;99.90;;;;;;4952897;29;20424;-73
2022/08/24 06:36:15;;;;;;;6.03;5.23;;;23.90;99.90;;;;;;4952950;29;20495;-73
2022/08/24 06:38:40;;;;;;;9.63;5.17;;;24.10;99.90;;;;;;4952913;29;20960;-74
2022/08/24 06:41:06;;;;;;;11.97;5.80;;;24.10;99.90;;;;;;4952290;29;20204;-73
2022/08/24 06:43:32;;;;;;;9.80;5.70;;;24.20;99.90;;;;;;4952198;29;20777;-72
2022/08/24 06:45:58;;;;;;;9.63;6.00;;;24.40;99.90;;;;;;4953029;29;20545;-73
2022/08/24 06:48:24;;;;;;;7.20;5.03;;;24.50;99.90;;;;;;4952449;29;20432;-70
2022/08/24 06:50:51;;;;;;;9.77;5.20;;;24.80;99.90;;;;;;4952205;29;20179;-73
2022/08/24 06:53:16;;;;;;;16.07;5.27;;;24.90;99.90;;;;;;4952599;29;20619;-72
2022/08/24 06:55:50;;;;;;;6.63;5.00;;;25.00;99.90;;;;;;4952386;29;20421;-72
2022/08/24 06:58:17;;;;;;;10.93;5.60;;;25.20;99.90;;;;;;4952132;29;20600;-72
2022/08/24 07:00:43;;;;;;;11.60;5.10;;;25.40;99.90;;;;;;4952014;29;20455;-73
2022/08/24 07:03:08;;;;;;;8.03;4.60;;;25.70;99.90;;;;;;4952583;29;20444;-72
2022/08/24 07:05:34;;;;;;;9.17;5.40;;;26.10;99.90;;;;;;4952111;29;20181;-73
2022/08/24 07:08:00;;;;;;;10.03;4.67;;;26.30;99.90;;;;;;4952507;29;20196;-72
2022/08/24 07:10:27;;;;;;;5.33;4.17;;;26.40;99.90;;;;;;4952085;29;20328;-72
2022/08/24 07:12:52;;;;;;;5.80;4.23;;;26.80;99.90;;;;;;4951870;29;21084;-73
2022/08/24 07:15:18;;;;;;;6.80;5.10;;;27.00;99.90;;;;;;4951843;29;20503;-73
2022/08/24 07:17:44;;;;;;;6.20;5.40;;;26.80;99.90;;;;;;4952217;29;20181;-70
2022/08/24 07:20:11;;;;;;;7.07;5.17;;;26.90;99.90;;;;;;4952373;29;20638;-73
2022/08/24 07:22:37;;;;;;;11.30;5.67;;;26.90;99.90;;;;;;4951721;29;20440;-72
2022/08/24 07:25:04;;;;;;;5.57;4.70;;;27.20;99.90;;;;;;4952163;28;20476;-73
2022/08/24 07:27:30;;;;;;;9.50;5.60;;;27.30;99.90;;;;;;4951516;29;20432;-72
2022/08/24 07:29:56;;;;;;;5.07;4.60;;;27.50;99.90;;;;;;4952329;29;20428;-72
2022/08/24 07:32:22;;;;;;;13.83;5.10;;;27.80;99.90;;;;;;4951415;29;20649;-72
2022/08/24 07:34:48;;;;;;;6.73;4.47;;;27.90;99.90;;;;;;4952241;29;20426;-72
2022/08/24 07:37:13;;;;;;;5.97;4.77;;;28.20;99.90;;;;;;4951657;29;20418;-72
2022/08/24 07:39:39;;;;;;;6.70;4.60;;;28.40;99.90;;;;;;4951984;29;20251;-72
2022/08/24 07:42:05;;;;;;;6.03;5.10;;;28.30;99.90;;;;;;4951015;29;20227;-72
2022/08/24 07:44:30;;;;;;;5.90;4.87;;;27.90;99.90;;;;;;4952033;29;20180;-72
2022/08/24 07:46:56;;;;;;;9.30;5.23;;;28.00;99.90;;;;;;4951759;29;20187;-73
2022/08/24 07:49:21;;;;;;;7.00;4.23;;;28.40;99.90;;;;;;4951491;29;20180;-72
2022/08/24 07:51:47;;;;;;;8.80;5.37;;;28.20;99.90;;;;;;4951727;29;20209;-72
2022/08/24 07:54:14;;;;;;;7.30;5.13;;;28.30;99.90;;;;;;4952152;29;20214;-73
2022/08/24 07:56:41;;;;;;;12.17;5.50;;;28.40;99.90;;;;;;4951988;29;20185;-73
2022/08/24 07:59:07;;;;;;;11.83;4.43;;;28.60;99.90;;;;;;4951926;29;20838;-73
2022/08/24 08:01:33;;;;;;;9.87;5.40;;;28.40;99.90;;;;;;4951453;29;20452;-72
2022/08/24 08:03:58;;;;;;;7.10;4.60;;;28.20;99.90;;;;;;4952419;29;20184;-72
2022/08/24 08:06:24;;;;;;;6.60;4.70;;;28.20;99.90;;;;;;4951859;29;20204;-69
2022/08/24 08:08:49;;;;;;;5.57;4.20;;;28.30;99.90;;;;;;4951651;29;20188;-72
2022/08/24 08:11:15;;;;;;;8.13;3.50;;;28.80;99.90;;;;;;4951142;29;20661;-73
2022/08/24 08:13:41;;;;;;;4.30;3.00;;;28.80;99.90;;;;;;4951929;29;20177;-72
2022/08/24 08:16:07;;;;;;;4.90;2.90;;;28.70;99.90;;;;;;4951497;29;20189;-72
2022/08/24 08:18:32;;;;;;;7.87;3.57;;;29.00;99.70;;;;;;4951476;29;20200;-72
2022/08/24 08:20:58;;;;;;;10.03;4.27;;;29.20;99.90;;;;;;4951284;29;20229;-72
2022/08/24 08:26:14;;;;;;;3.10;2.90;;;29.60;99.50;;;;;;4951436;29;20187;-73
2022/08/24 08:28:41;;;;;;;3.77;3.37;;;29.70;98.90;;;;;;4952329;29;20432;-74
2022/08/24 08:31:06;;;;;;;4.70;2.77;;;29.70;99.10;;;;;;4952025;29;20470;-73
2022/08/24 08:33:34;;;;;;;2.50;2.30;;;29.40;99.80;;;;;;4952206;29;20424;-73
2022/08/24 08:36:10;;;;;;;8.97;3.00;;;29.80;99.40;;;;;;4951938;28;20177;-74
2022/08/24 08:38:36;;;;;;;5.80;2.90;;;30.00;98.20;;;;;;4954322;29;20467;-73
2022/08/24 08:41:16;;;;;;;4.00;2.97;;;30.50;97.60;;;;;;4954503;29;20450;-73
2022/08/24 08:43:56;;;;;;;8.73;2.60;;;30.40;96.80;;;;;;4954557;29;20243;-72
2022/08/24 08:46:59;;;;;;;7.10;2.67;;;30.00;95.20;;;;;;4954990;29;20471;-73
2022/08/24 08:49:52;;;;;;;4.20;2.40;;;29.90;96.40;;;;;;4954642;29;20523;-70
2022/08/24 08:52:50;;;;;;;4.17;2.07;;;30.20;95.90;;;;;;4954276;29;20432;-72
2022/08/24 08:55:36;;;;;;;7.77;2.60;;;30.80;93.60;;;;;;4954963;29;20416;-73
2022/08/24 08:58:21;;;;;;;3.07;2.47;;;30.90;93.50;;;;;;4954760;29;20527;-73
2022/08/24 09:00:55;;;;;;;3.30;2.27;;;30.90;92.70;;;;;;4953904;29;20435;-73
2022/08/24 09:03:35;;;;;;;2.97;1.90;;;31.50;91.20;;;;;;4954354;29;20476;-73
2022/08/24 09:06:23;;;;;;;3.03;2.17;;;32.00;90.60;;;;;;4954951;29;20422;-72
2022/08/24 09:09:13;;;;;;;1.67;1.57;;;32.00;89.20;;;;;;4954716;29;20416;-73
2022/08/24 09:12:14;;;;;;;4.03;2.20;;;32.00;89.10;;;;;;4954135;29;20833;-73
2022/08/24 09:14:45;;;;;;;3.10;2.30;;;31.70;88.60;;;;;;4895051;29;20467;-72
2022/08/24 09:17:32;;;;;;;2.40;2.30;;;32.10;88.70;;;;;;4944580;29;20428;-73
2022/08/24 09:20:06;;;;;;;2.50;1.80;;;32.40;87.40;;;;;;4954241;29;20873;-73
2022/08/24 09:22:39;;;;;;;1.47;1.37;;;32.30;85.50;;;;;;4953821;29;20860;-73
2022/08/24 09:25:19;;;;;;;1.33;1.33;;;32.40;85.20;;;;;;4954399;29;20412;-71
2022/08/24 09:27:51;;;;;;;2.80;1.67;;;33.10;84.70;;;;;;4954357;29;21139;-71
2022/08/24 09:30:24;;;;;;;2.20;1.53;;;33.70;82.20;;;;;;4954284;29;20412;-73
2022/08/24 09:33:07;;;;;;;2.13;2.03;;;33.80;81.00;;;;;;4953188;29;20555;-73
2022/08/24 09:35:45;;;;;;;1.57;1.47;;;33.90;81.10;;;;;;4954071;29;20905;-73
2022/08/24 09:38:30;;;;;;;3.23;1.80;;;34.00;81.60;;;;;;4953768;29;20454;-73
2022/08/24 09:41:44;;;;;;;1.80;1.70;;;33.80;78.40;;;;;;4953486;29;20507;-73
2022/08/24 09:44:54;;;;;;;3.43;1.27;;;33.90;77.30;;;;;;4953864;28;20501;-73
2022/08/24 09:47:47;;;;;;;1.63;1.53;;;33.80;76.80;;;;;;4945543;29;20447;-74
2022/08/24 09:50:42;;;;;;;1.97;1.40;;;33.60;76.40;;;;;;4953833;28;20416;-73
2022/08/24 09:53:46;;;;;;;1.87;1.77;;;33.20;76.70;;;;;;4953450;28;20428;-72
2022/08/24 09:56:20;;;;;;;3.37;1.30;;;33.50;78.90;;;;;;4951384;29;20806;-73
2022/08/24 09:59:11;;;;;;;4.80;1.20;;;34.10;77.60;;;;;;4952804;28;20455;-73
2022/08/24 10:02:06;;;;;;;1.70;1.60;;;34.40;75.10;;;;;;4952735;29;20535;-73
2022/08/24 10:05:04;;;;;;;2.97;1.83;;;34.70;74.90;;;;;;4953463;28;20428;-73
2022/08/24 10:07:49;;;;;;;2.10;1.93;;;34.10;74.10;;;;;;4953033;28;20522;-74
2022/08/24 10:10:37;;;;;;;3.23;1.57;;;34.30;76.00;;;;;;4953416;28;20495;-74
2022/08/24 10:13:40;;;;;;;1.60;1.50;;;34.20;75.50;;;;;;4953470;28;21421;-75
2022/08/24 10:16:37;;;;;;;1.87;1.33;;;34.30;72.40;;;;;;4953206;29;20770;-73
2022/08/24 10:19:12;;;;;;;1.60;1.50;;;34.40;72.60;;;;;;4952963;28;20882;-74
2022/08/24 10:22:04;;;;;;;4.67;1.90;;;34.30;71.60;;;;;;4952437;28;20940;-74
2022/08/24 10:24:56;;;;;;;1.50;1.40;;;33.80;72.80;;;;;;4952587;28;20789;-74
2022/08/24 10:27:46;;;;;;;1.43;1.33;;;33.60;71.80;;;;;;4954146;28;20497;-73
2022/08/24 10:30:43;;;;;;;4.03;1.27;;;33.80;72.30;;;;;;4953904;28;20421;-73
2022/08/24 10:33:27;;;;;;;2.30;1.10;;;33.70;71.10;;;;;;4952929;28;20436;-73
2022/08/24 10:36:05;;;;;;;2.20;1.30;;;34.00;71.10;;;;;;4952273;28;20408;-74
2022/08/24 10:41:49;;;;;;;3.20;1.53;;;34.50;69.30;;;;;;4952073;29;20467;-73
2022/08/24 10:44:33;;;;;;;1.57;1.00;;;34.40;71.10;;;;;;4952798;28;20408;-73
2022/08/24 10:47:10;;;;;;;1.57;1.13;;;34.20;68.00;;;;;;4952712;29;20440;-74
2022/08/24 10:49:35;;;;;;;1.77;0.93;;;34.60;67.00;;;;;;4951960;28;20423;-73
2022/08/24 10:52:35;;;;;;;1.20;1.10;;;34.70;61.90;;;;;;4951764;28;20436;-73
2022/08/24 10:55:23;;;;;;;1.10;0.93;;;34.50;62.60;;;;;;4952884;28;20179;-73
2022/08/24 10:58:09;;;;;;;1.25;1.10;;;34.70;62.50;;;;;;4952213;28;20428;-73
2022/08/24 11:00:36;;;;;;;2.27;1.30;;;34.60;63.60;;;;;;4951020;28;20408;-72
2022/08/24 11:03:09;;;;;;;3.33;1.40;;;34.10;61.90;;;;;;4952411;28;21157;-73
2022/08/24 11:05:43;;;;;;;1.57;1.10;;;34.30;62.10;;;;;;4952425;28;20408;-74
2022/08/24 11:08:18;;;;;;;2.00;1.23;;;34.30;63.20;;;;;;4952103;28;20753;-72
2022/08/24 11:10:44;;;;;;;1.40;1.30;;;34.00;64.00;;;;;;4951193;28;20481;-71
2022/08/24 11:13:23;;;;;;;2.23;1.50;;;33.40;64.20;;;;;;4952502;28;20417;-73
2022/08/24 11:15:58;;;;;;;0.80;0.80;;;34.00;65.90;;;;;;4952216;28;20263;-74
2022/08/24 11:18:25;;;;;;;2.40;1.17;;;34.30;64.80;;;;;;4951681;28;20980;-70
2022/08/24 11:20:54;;;;;;;1.30;1.20;;;33.80;64.10;;;;;;4951672;28;20424;-73
2022/08/24 11:23:23;;;;;;;1.50;1.40;;;33.80;65.00;;;;;;4951833;28;20797;-73
2022/08/24 11:25:58;;;;;;;1.20;1.10;;;34.20;65.30;;;;;;4951537;28;20423;-73
2022/08/24 11:28:45;;;;;;;4.33;0.97;;;34.20;62.50;;;;;;4950874;28;20420;-73
2022/08/24 11:31:18;;;;;;;1.20;1.20;;;34.10;63.90;;;;;;4951221;28;20452;-73
2022/08/24 11:33:57;;;;;;;2.40;1.30;;;34.00;64.00;;;;;;4950160;29;20443;-71
2022/08/24 11:36:26;;;;;;;1.50;1.40;;;34.20;64.10;;;;;;4952159;28;20417;-73
2022/08/24 11:39:14;;;;;;;2.20;1.40;;;34.00;64.60;;;;;;4951782;28;20463;-74
2022/08/24 11:41:55;;;;;;;2.00;1.10;;;33.60;64.40;;;;;;4951438;28;20440;-73
2022/08/24 11:44:34;;;;;;;1.53;1.10;;;33.20;65.60;;;;;;4950522;29;20424;-73
2022/08/24 11:47:16;;;;;;;1.90;1.50;;;33.00;66.50;;;;;;4951895;28;20925;-72
2022/08/24 11:49:55;;;;;;;1.67;1.57;;;32.50;67.00;;;;;;4951867;28;20456;-72
2022/08/24 11:52:30;;;;;;;4.10;1.20;;;32.70;67.30;;;;;;4951387;28;20566;-72
2022/08/24 11:55:21;;;;;;;1.90;1.80;;;32.40;69.00;;;;;;4950018;28;20463;-73
2022/08/24 11:57:57;;;;;;;5.17;1.67;;;32.60;69.50;;;;;;4950078;28;20424;-73
2022/08/24 12:00:29;;;;;;;1.57;1.40;;;32.30;66.20;;;;;;4948855;29;20415;-75
2022/08/24 12:03:38;;;;;;;2.30;1.50;;;31.90;66.00;;;;;;4948332;29;20436;-72
2022/08/24 12:06:19;;;;;;;1.60;1.50;;;31.50;67.80;;;;;;4947351;29;20507;-74
2022/08/24 12:08:53;;;;;;;2.73;1.37;;;31.50;68.90;;;;;;4947939;29;20419;-71
2022/08/24 12:11:33;;;;;;;1.27;1.17;;;31.50;69.40;;;;;;4949534;28;20972;-72
2022/08/24 12:14:14;;;;;;;2.37;1.30;;;31.70;67.20;;;;;;4955445;28;20454;-73
2022/08/24 12:16:44;;;;;;;1.37;1.27;;;31.90;69.50;;;;;;4955445;28;20409;-72
2022/08/24 12:19:18;;;;;;;1.60;1.50;;;31.80;67.20;;;;;;4954875;28;21160;-71
2022/08/24 12:21:53;;;;;;;1.60;1.50;;;31.60;67.50;;;;;;4954598;28;20444;-69
2022/08/24 12:24:44;;;;;;;1.50;1.40;;;31.60;69.20;;;;;;4955238;28;20408;-73
2022/08/24 12:27:27;;;;;;;1.50;1.40;;;31.70;69.10;;;;;;4954784;29;20431;-72
2022/08/24 12:30:04;;;;;;;1.33;1.20;;;31.70;69.00;;;;;;4956608;28;20831;-74
2022/08/24 12:32:45;;;;;;;1.40;1.40;;;31.60;68.30;;;;;;4954189;28;20467;-72
2022/08/24 12:35:23;;;;;;;2.80;1.30;;;31.60;66.80;;;;;;4955283;28;20412;-72
2022/08/24 12:37:57;;;;;;;1.87;1.17;;;31.50;66.90;;;;;;4954867;28;20459;-72
2022/08/24 12:40:32;;;;;;;4.40;1.00;;;31.30;67.30;;;;;;4954382;28;20836;-73
2022/08/24 12:43:20;;;;;;;2.10;1.30;;;31.20;67.40;;;;;;4954932;28;20471;-73
2022/08/24 12:45:47;;;;;;;1.17;1.07;;;31.00;67.00;;;;;;4954953;28;20411;-70
2022/08/24 12:48:43;;;;;;;1.43;1.33;;;31.00;66.70;;;;;;4953625;28;20416;-72
2022/08/24 12:51:21;;;;;;;1.47;1.37;;;30.60;67.20;;;;;;4955337;29;20432;-73
2022/08/24 12:54:00;;;;;;;1.67;1.57;;;30.60;67.10;;;;;;4954853;28;20408;-73
2022/08/24 12:56:47;;;;;;;1.73;1.30;;;30.70;68.20;;;;;;4955041;28;20503;-72
2022/08/24 12:59:22;;;;;;;1.23;1.13;;;30.80;68.10;;;;;;4955445;29;21243;-72
2022/08/24 13:02:17;;;;;;;1.50;1.40;;;30.90;68.60;;;;;;4954791;28;20524;-73
2022/08/24 13:04:48;;;;;;;2.27;2.13;;;31.00;68.70;;;;;;4927773;28;20424;-73
2022/08/24 13:07:22;;;;;;;1.23;1.13;;;31.30;69.20;;;;;;4954618;29;20515;-72
2022/08/24 13:10:05;;;;;;;1.80;1.20;;;31.40;67.80;;;;;;4954169;29;20459;-73
2022/08/24 13:12:40;;;;;;;1.93;1.70;;;31.30;66.90;;;;;;4953859;29;21174;-72
2022/08/24 13:15:20;;;;;;;2.30;1.60;;;31.30;68.40;;;;;;4953734;28;20784;-71
2022/08/24 13:17:47;;;;;;;1.50;1.40;;;31.30;69.00;;;;;;4954201;28;20408;-71
2022/08/24 13:20:31;;;;;;;1.40;1.30;;;31.60;68.40;;;;;;4954212;28;20508;-73
2022/08/24 13:23:10;;;;;;;1.70;1.30;;;31.20;68.80;;;;;;4952039;28;20988;-72
2022/08/24 13:25:53;;;;;;;2.70;1.73;;;31.00;69.00;;;;;;4953820;29;21277;-72
2022/08/24 13:28:21;;;;;;;1.17;1.10;;;30.80;69.30;;;;;;4954015;28;20866;-72
2022/08/24 13:31:14;;;;;;;1.53;1.43;;;30.70;69.60;;;;;;4952969;29;20408;-72
2022/08/24 13:33:42;;;;;;;1.70;1.60;;;30.60;70.20;;;;;;4953714;29;20424;-72
2022/08/24 13:36:30;;;;;;;4.23;1.57;;;30.50;70.20;;;;;;4954085;28;20412;-72
2022/08/24 13:39:01;;;;;;;2.33;1.57;;;30.40;71.00;;;;;;4953114;29;21032;-70
2022/08/24 13:41:59;;;;;;;3.33;1.83;;;30.40;70.50;;;;;;4953094;29;20465;-72
2022/08/24 13:44:42;;;;;;;1.50;1.40;;;30.40;70.50;;;;;;4953650;28;20432;-69
2022/08/24 13:47:26;;;;;;;3.00;1.70;;;30.40;71.30;;;;;;4953783;28;20503;-72
2022/08/24 13:50:13;;;;;;;1.53;1.43;;;30.50;72.20;;;;;;4953341;28;20469;-73
2022/08/24 13:53:01;;;;;;;2.57;1.90;;;30.60;72.00;;;;;;4953215;28;20491;-72
2022/08/24 13:55:48;;;;;;;1.30;1.20;;;30.60;71.60;;;;;;4953590;28;20940;-72
2022/08/24 13:58:44;;;;;;;3.60;2.20;;;30.50;72.90;;;;;;4950923;29;20539;-72
2022/08/24 14:01:32;;;;;;;1.97;1.87;;;30.30;72.80;;;;;;4953015;28;20436;-72
2022/08/24 14:04:07;;;;;;;4.13;3.83;;;30.30;72.90;;;;;;4953547;28;20776;-72
2022/08/24 14:06:51;;;;;;;1.70;1.60;;;30.30;73.10;;;;;;4953207;29;20767;-72
2022/08/24 14:09:45;;;;;;;1.97;1.87;;;30.30;73.00;;;;;;4953032;29;20519;-72
2022/08/24 14:12:37;;;;;;;1.83;1.70;;;30.10;73.10;;;;;;4952767;29;20810;-72
2022/08/24 14:15:23;;;;;;;1.53;1.43;;;30.20;74.10;;;;;;4953381;28;20456;-72
2022/08/24 14:17:54;;;;;;;2.40;1.90;;;30.20;73.80;;;;;;4953160;29;20424;-72
2022/08/24 14:20:53;;;;;;;2.37;1.40;;;30.10;74.10;;;;;;4953014;28;20420;-73
2022/08/24 14:23:44;;;;;;;3.43;1.60;;;30.00;74.30;;;;;;4952859;28;20408;-73
2022/08/24 14:26:32;;;;;;;2.00;1.90;;;30.00;74.40;;;;;;4954592;28;20910;-72
2022/08/24 14:29:31;;;;;;;3.07;1.47;;;30.00;75.00;;;;;;4953100;29;20503;-73
2022/08/24 14:31:59;;;;;;;2.07;1.87;;;29.90;76.50;;;;;;4918896;28;20464;-72
2022/08/24 14:34:40;;;;;;;2.30;2.20;;;29.90;76.40;;;;;;4952146;28;20444;-71
2022/08/24 14:37:12;;;;;;;1.90;1.80;;;29.90;76.80;;;;;;4952277;29;20430;-72
2022/08/24 14:40:03;;;;;;;1.67;1.53;;;29.70;77.00;;;;;;4952717;29;20511;-73
2022/08/24 14:42:53;;;;;;;1.70;1.60;;;29.60;77.50;;;;;;4951562;28;20511;-72
2022/08/24 14:45:54;;;;;;;5.50;2.00;;;29.60;75.90;;;;;;4952181;29;20400;-72
2022/08/24 14:48:51;;;;;;;5.37;1.60;;;29.60;77.70;;;;;;4952750;29;21003;-74
2022/08/24 14:51:55;;;;;;;1.90;1.80;;;29.50;78.60;;;;;;4951889;28;20428;-73
2022/08/24 14:54:44;;;;;;;2.60;1.60;;;29.50;78.80;;;;;;4909663;29;20420;-73
2022/08/24 14:57:45;;;;;;;2.00;1.80;;;29.60;78.30;;;;;;4952319;28;20964;-73
2022/08/24 15:00:21;;;;;;;4.47;1.53;;;29.60;78.50;;;;;;4939556;29;20554;-73